Time;durP1;ratioP1;P1;durP2;ratioP2;P2;SDS_P1;SDS_P2;PMS_P1;PMS_P2;Temp;Humidity;BMP_temperature;BMP_pressure;BME280_temperature;BME280_humidity;BME280_pressure;Samples;Min_cycle;Max_cycle;Signal;HPM_P1;HPM_P2
2023/09/17 00:00:09;;;;;;;;;;;;;;;12.61;74.54;101551.72;104921;1268;125189;-80
2023/09/17 00:02:56;;;;;;;;;;;;;;;12.61;74.50;101550.15;105068;1269;62129;-81
2023/09/17 00:05:22;;;;;;;;;;;;;;;12.61;74.50;101550.85;104969;1273;125709;-80
2023/09/17 00:07:49;;;;;;;;;;;;;;;12.61;74.53;101551.38;105102;1268;62116;-80
2023/09/17 00:10:15;;;;;;;;;;;;;;;12.62;74.55;101553.67;105050;1273;62156;-80
2023/09/17 00:12:42;;;;;;;;;;;;;;;12.61;74.63;101551.91;105064;1270;125279;-80
2023/09/17 00:15:08;;;;;;;;;;;;;;;12.61;74.60;101550.67;105090;1274;62203;-80
2023/09/17 00:17:35;;;;;;;;;;;;;;;12.61;74.67;101551.91;105063;1271;125382;-81
2023/09/17 00:20:03;;;;;;;;;;;;;;;12.60;74.67;101549.21;105026;1268;64913;-81
2023/09/17 00:22:29;;;;;;;;;;;;;;;12.59;74.70;101552.73;105195;1268;71293;-81
2023/09/17 00:24:56;;;;;;;;;;;;;;;12.60;74.81;101551.50;104969;1272;125281;-80
2023/09/17 00:27:22;;;;;;;;;;;;;;;12.59;74.88;101547.79;105031;1271;62214;-80
2023/09/17 00:29:49;;;;;;;;;;;;;;;12.59;74.94;101547.06;104990;1268;125091;-80
2023/09/17 00:32:15;;;;;;;;;;;;;;;12.59;74.85;101545.33;105219;1268;62203;-80
2023/09/17 00:34:42;;;;;;;;;;;;;;;12.58;74.83;101542.83;105079;1273;62206;-80
2023/09/17 00:37:10;;;;;;;;;;;;;;;12.58;74.82;101542.13;105096;1268;125246;-77
2023/09/17 00:39:37;;;;;;;;;;;;;;;12.58;74.85;101536.48;105145;1271;61984;-81
2023/09/17 00:42:03;;;;;;;;;;;;;;;12.55;74.85;101534.29;104980;1274;126709;-77
2023/09/17 00:44:30;;;;;;;;;;;;;;;12.55;74.94;101532.52;105144;1273;66450;-76
2023/09/17 00:46:56;;;;;;;;;;;;;;;12.55;75.02;101537.27;104987;1273;125674;-77
2023/09/17 00:49:23;;;;;;;;;;;;;;;12.54;74.94;101534.26;105086;1273;62182;-77
2023/09/17 00:51:49;;;;;;;;;;;;;;;12.53;75.10;101532.30;104937;1269;62140;-75
2023/09/17 00:54:16;;;;;;;;;;;;;;;12.52;75.06;101526.45;105045;1268;125125;-78
2023/09/17 00:56:42;;;;;;;;;;;;;;;12.51;75.08;101529.05;105061;1273;60451;-80
2023/09/17 00:59:10;;;;;;;;;;;;;;;12.49;75.13;101525.11;104835;1271;125290;-79
2023/09/17 01:01:36;;;;;;;;;;;;;;;12.47;75.11;101526.11;105069;1268;61977;-75
2023/09/17 01:04:03;;;;;;;;;;;;;;;12.46;75.25;101525.20;105185;1268;62078;-76
2023/09/17 01:06:29;;;;;;;;;;;;;;;12.45;75.27;101524.66;105139;1273;125450;-79
2023/09/17 01:08:56;;;;;;;;;;;;;;;12.43;75.26;101526.02;104997;1268;62206;-80
2023/09/17 01:11:22;;;;;;;;;;;;;;;12.39;75.14;101525.90;104972;1272;125486;-80
2023/09/17 01:14:07;;;;;;;;;;;;;;;12.37;75.18;101528.80;105068;1270;62203;-80
2023/09/17 01:16:34;;;;;;;;;;;;;;;12.35;75.28;101525.57;105053;1273;61966;-80
2023/09/17 01:19:01;;;;;;;;;;;;;;;12.33;75.31;101526.24;104959;1270;125397;-81
2023/09/17 01:21:31;;;;;;;;;;;;;;;12.31;75.40;101526.54;105207;1273;66298;-80
2023/09/17 01:24:17;;;;;;;;;;;;;;;12.28;75.43;101523.27;105933;1273;125273;-78
2023/09/17 01:26:44;;;;;;;;;;;;;;;12.24;75.41;101518.59;105122;1270;62183;-79
2023/09/17 01:29:13;;;;;;;;;;;;;;;12.22;75.37;101513.23;105162;1268;124752;-79
2023/09/17 01:31:40;;;;;;;;;;;;;;;12.22;75.60;101513.95;105297;1273;75701;-77
2023/09/17 01:34:07;;;;;;;;;;;;;;;12.22;75.62;101510.61;105189;1268;66411;-75
2023/09/17 01:36:34;;;;;;;;;;;;;;;12.22;75.58;101510.94;104949;1275;125125;-80
2023/09/17 01:39:04;;;;;;;;;;;;;;;12.19;75.62;101513.86;105225;1273;62233;-75
2023/09/17 01:41:34;;;;;;;;;;;;;;;12.15;75.62;101510.56;105131;1268;124946;-75
2023/09/17 01:44:01;;;;;;;;;;;;;;;12.12;75.74;101511.17;105135;1268;75473;-76
2023/09/17 01:46:30;;;;;;;;;;;;;;;12.08;75.70;101506.30;105017;1267;66649;-75
2023/09/17 01:48:56;;;;;;;;;;;;;;;12.03;75.79;101506.67;104946;1268;124730;-80
2023/09/17 01:51:23;;;;;;;;;;;;;;;11.99;75.72;101503.02;104938;1268;62193;-80
2023/09/17 01:53:50;;;;;;;;;;;;;;;11.94;75.80;101502.36;104975;1268;124589;-80
2023/09/17 01:56:17;;;;;;;;;;;;;;;11.90;75.94;101500.80;105104;1273;75254;-80
2023/09/17 01:58:44;;;;;;;;;;;;;;;11.87;76.06;101499.29;105063;1272;64817;-80
2023/09/17 02:01:10;;;;;;;;;;;;;;;11.82;76.00;101501.08;105001;1273;124371;-80
2023/09/17 02:03:37;;;;;;;;;;;;;;;11.79;76.13;101496.72;105111;1268;62164;-80
2023/09/17 02:06:04;;;;;;;;;;;;;;;11.74;76.20;101497.48;104980;1268;124709;-80
2023/09/17 02:08:30;;;;;;;;;;;;;;;11.72;76.28;101497.23;105085;1272;74195;-80
2023/09/17 02:10:57;;;;;;;;;;;;;;;11.70;76.32;101495.55;104989;1273;124783;-79
2023/09/17 02:13:23;;;;;;;;;;;;;;;11.67;76.42;101498.63;105170;1273;62187;-80
2023/09/17 02:15:50;;;;;;;;;;;;;;;11.64;76.56;101494.86;105143;1268;62120;-81
2023/09/17 02:18:16;;;;;;;;;;;;;;;11.62;76.65;101494.98;105024;1273;124621;-81
2023/09/17 02:20:44;;;;;;;;;;;;;;;11.60;76.70;101497.19;105194;1272;62084;-81
2023/09/17 02:23:10;;;;;;;;;;;;;;;11.59;76.83;101495.39;104927;1268;125266;-81
2023/09/17 02:25:37;;;;;;;;;;;;;;;11.56;76.69;101495.30;105120;1268;62084;-81
2023/09/17 02:28:03;;;;;;;;;;;;;;;11.54;76.96;101489.23;105063;1272;62151;-80
2023/09/17 02:30:31;;;;;;;;;;;;;;;11.51;76.99;101489.34;105002;1268;127087;-80
2023/09/17 02:32:57;;;;;;;;;;;;;;;11.50;77.05;101486.81;105111;1269;75649;-80
2023/09/17 02:35:23;;;;;;;;;;;;;;;11.49;77.04;101488.36;105049;1272;125431;-80
2023/09/17 02:37:50;;;;;;;;;;;;;;;11.48;77.25;101490.46;105145;1273;62116;-80
2023/09/17 02:40:16;;;;;;;;;;;;;;;11.48;77.29;101490.10;105155;1270;62126;-80
2023/09/17 02:42:43;;;;;;;;;;;;;;;11.49;77.27;101490.66;105070;1271;125277;-79
2023/09/17 02:45:11;;;;;;;;;;;;;;;11.51;77.36;101496.34;105085;1273;74998;-79
2023/09/17 02:47:40;;;;;;;;;;;;;;;11.51;77.55;101498.65;104899;1274;125353;-80
2023/09/17 02:50:07;;;;;;;;;;;;;;;11.52;77.60;101493.75;105175;1273;72491;-80
2023/09/17 02:52:34;;;;;;;;;;;;;;;11.54;77.59;101492.23;105117;1268;62123;-80
2023/09/17 02:55:00;;;;;;;;;;;;;;;11.55;77.63;101490.67;104986;1268;125465;-81
2023/09/17 02:57:27;;;;;;;;;;;;;;;11.57;77.60;101489.34;105148;1273;74415;-80
2023/09/17 02:59:54;;;;;;;;;;;;;;;11.58;77.65;101491.15;104976;1270;126325;-81
2023/09/17 03:02:20;;;;;;;;;;;;;;;11.60;77.70;101495.40;104994;1272;62189;-81
2023/09/17 03:04:47;;;;;;;;;;;;;;;11.61;77.65;101495.45;105119;1268;62135;-81
2023/09/17 03:07:14;;;;;;;;;;;;;;;11.63;77.69;101493.42;104967;1270;125434;-81
2023/09/17 03:09:42;;;;;;;;;;;;;;;11.65;77.79;101494.52;105103;1269;75460;-81
2023/09/17 03:12:09;;;;;;;;;;;;;;;11.66;77.67;101488.23;105040;1268;125812;-81
2023/09/17 03:14:35;;;;;;;;;;;;;;;11.65;77.56;101482.04;105031;1271;71343;-81
2023/09/17 03:17:05;;;;;;;;;;;;;;;11.66;77.68;101485.08;104968;1267;125623;-80
2023/09/17 03:19:31;;;;;;;;;;;;;;;11.66;77.73;101482.80;105050;1270;60139;-81
2023/09/17 03:21:58;;;;;;;;;;;;;;;11.67;77.80;101481.42;105041;1273;75696;-81
2023/09/17 03:24:24;;;;;;;;;;;;;;;11.69;77.85;101479.35;104974;1273;125188;-81
2023/09/17 03:26:51;;;;;;;;;;;;;;;11.69;77.69;101476.20;105125;1271;62127;-81
2023/09/17 03:29:18;;;;;;;;;;;;;;;11.69;77.86;101474.25;104972;1276;126711;-81
2023/09/17 03:31:46;;;;;;;;;;;;;;;11.67;77.77;101471.73;105156;1272;62090;-81
2023/09/17 03:34:13;;;;;;;;;;;;;;;11.66;77.74;101469.58;105166;1270;75480;-81
2023/09/17 03:36:39;;;;;;;;;;;;;;;11.63;77.62;101465.64;105041;1281;125576;-81
2023/09/17 03:39:06;;;;;;;;;;;;;;;11.62;77.70;101466.14;105112;1273;62126;-81
2023/09/17 03:41:32;;;;;;;;;;;;;;;11.62;77.89;101465.45;104945;1270;125434;-81
2023/09/17 03:43:59;;;;;;;;;;;;;;;11.65;77.98;101465.18;105186;1267;62219;-81
2023/09/17 03:46:25;;;;;;;;;;;;;;;11.66;78.11;101461.16;105128;1268;62195;-81
2023/09/17 03:48:52;;;;;;;;;;;;;;;11.66;78.04;101457.46;105199;1273;125401;-81
2023/09/17 03:51:19;;;;;;;;;;;;;;;11.65;78.02;101454.25;105268;1273;72777;-79
2023/09/17 03:53:46;;;;;;;;;;;;;;;11.63;77.94;101455.26;105065;1270;125578;-79
2023/09/17 03:56:12;;;;;;;;;;;;;;;11.62;77.95;101456.98;105076;1273;62142;-80
2023/09/17 03:58:39;;;;;;;;;;;;;;;11.62;78.07;101460.52;105242;1273;74517;-80
2023/09/17 04:01:06;;;;;;;;;;;;;;;11.61;78.03;101461.52;105018;1281;125576;-80
2023/09/17 04:03:32;;;;;;;;;;;;;;;11.59;78.21;101462.18;105104;1273;71600;-81
2023/09/17 04:05:59;;;;;;;;;;;;;;;11.60;78.25;101462.36;104985;1272;125550;-80
2023/09/17 04:08:25;;;;;;;;;;;;;;;11.61;78.33;101465.23;105117;1274;62014;-81
2023/09/17 04:10:55;;;;;;;;;;;;;;;11.60;78.28;101464.31;105058;1280;125432;-80
2023/09/17 04:13:21;;;;;;;;;;;;;;;11.59;78.24;101460.77;105085;1273;66283;-81
2023/09/17 04:15:48;;;;;;;;;;;;;;;11.60;78.38;101463.09;105077;1273;72952;-81
2023/09/17 04:18:15;;;;;;;;;;;;;;;11.62;78.32;101463.16;105021;1270;125195;-81
2023/09/17 04:20:41;;;;;;;;;;;;;;;11.64;78.31;101462.14;105074;1268;60215;-81
2023/09/17 04:23:09;;;;;;;;;;;;;;;11.65;78.38;101463.95;104975;1272;125310;-80
2023/09/17 04:25:36;;;;;;;;;;;;;;;11.64;78.22;101464.08;105101;1273;67071;-81
2023/09/17 04:28:04;;;;;;;;;;;;;;;11.62;78.24;101464.02;105225;1270;72480;-76
2023/09/17 04:30:31;;;;;;;;;;;;;;;11.62;78.25;101466.14;105024;1273;125527;-77
2023/09/17 04:32:58;;;;;;;;;;;;;;;11.67;78.55;101465.77;105121;1270;62188;-75
2023/09/17 04:35:24;;;;;;;;;;;;;;;11.89;78.99;101472.63;104968;1270;125982;-75
2023/09/17 04:37:51;;;;;;;;;;;;;;;12.20;78.98;101471.48;105052;1270;60592;-76
2023/09/17 04:40:18;;;;;;;;;;;;;;;12.56;78.97;101476.55;105081;1273;72830;-76
2023/09/17 04:42:45;;;;;;;;;;;;;;;12.98;78.90;101478.94;105006;1273;126216;-76
2023/09/17 04:45:16;;;;;;;;;;;;;;;13.40;78.40;101477.05;104978;1274;62009;-77
2023/09/17 04:47:42;;;;;;;;;;;;;;;13.61;77.62;101475.46;104965;1271;125270;-77
2023/09/17 04:50:09;;;;;;;;;;;;;;;13.67;76.67;101477.37;105101;1267;62685;-80
2023/09/17 04:52:36;;;;;;;;;;;;;;;13.67;76.33;101479.32;105117;1280;72711;-77
2023/09/17 04:55:03;;;;;;;;;;;;;;;13.64;76.19;101483.30;105052;1270;125898;-79
2023/09/17 04:57:29;;;;;;;;;;;;;;;13.65;76.03;101484.02;105257;1268;62024;-79
2023/09/17 04:59:56;;;;;;;;;;;;;;;13.67;75.92;101486.02;105074;1271;125448;-79
2023/09/17 05:02:22;;;;;;;;;;;;;;;13.71;75.90;101489.84;105274;1272;61958;-80
2023/09/17 05:04:49;;;;;;;;;;;;;;;13.76;75.75;101491.88;105130;1270;62078;-75
2023/09/17 05:07:16;;;;;;;;;;;;;;;13.81;75.75;101490.77;105139;1270;125546;-81
2023/09/17 05:09:43;;;;;;;;;;;;;;;13.86;75.55;101489.10;105075;1270;60859;-80
2023/09/17 05:12:09;;;;;;;;;;;;;;;13.91;75.53;101493.11;105063;1273;125805;-80
2023/09/17 05:14:36;;;;;;;;;;;;;;;13.98;75.61;101493.27;105151;1270;65060;-79
2023/09/17 05:17:02;;;;;;;;;;;;;;;14.06;75.61;101499.29;105024;1270;125624;-79
2023/09/17 05:19:29;;;;;;;;;;;;;;;14.13;75.66;101502.27;105132;1270;62180;-80
2023/09/17 05:21:56;;;;;;;;;;;;;;;14.20;75.67;101499.77;105094;1270;62202;-80
2023/09/17 05:24:22;;;;;;;;;;;;;;;14.27;75.63;101506.11;105083;1268;125431;-75
2023/09/17 05:26:50;;;;;;;;;;;;;;;14.35;75.67;101508.21;105178;1270;65226;-75
2023/09/17 05:29:16;;;;;;;;;;;;;;;14.42;75.71;101503.60;104963;1270;125503;-79
2023/09/17 05:31:43;;;;;;;;;;;;;;;14.46;75.66;101507.02;105137;1268;62158;-79
2023/09/17 05:34:09;;;;;;;;;;;;;;;14.52;75.76;101502.92;105092;1268;62107;-79
2023/09/17 05:36:36;;;;;;;;;;;;;;;14.60;75.85;101506.48;105030;1268;124951;-76
2023/09/17 05:39:03;;;;;;;;;;;;;;;14.69;75.90;101510.01;105117;1268;62098;-76
2023/09/17 05:41:29;;;;;;;;;;;;;;;14.78;75.87;101509.67;104997;1270;125154;-76
2023/09/17 05:43:56;;;;;;;;;;;;;;;14.85;75.89;101508.38;105203;1273;62068;-80
2023/09/17 05:46:22;;;;;;;;;;;;;;;14.91;75.82;101513.09;105144;1273;62085;-81
2023/09/17 05:48:49;;;;;;;;;;;;;;;14.95;75.83;101509.81;105093;1270;124783;-81
2023/09/17 05:51:15;;;;;;;;;;;;;;;14.97;75.75;101510.22;105040;1273;62661;-80
2023/09/17 05:53:42;;;;;;;;;;;;;;;15.02;75.84;101507.48;104998;1272;124756;-80
2023/09/17 05:56:08;;;;;;;;;;;;;;;15.08;75.94;101510.94;105038;1270;61979;-81
2023/09/17 05:58:35;;;;;;;;;;;;;;;15.13;75.84;101510.16;105034;1267;60138;-81
2023/09/17 06:01:01;;;;;;;;;;;;;;;15.17;75.90;101510.41;104986;1268;124637;-81
2023/09/17 06:03:27;;;;;;;;;;;;;;;15.20;75.71;101510.11;105116;1270;60273;-81
2023/09/17 06:05:55;;;;;;;;;;;;;;;15.23;75.72;101508.57;104968;1268;124562;-82
2023/09/17 06:08:22;;;;;;;;;;;;;;;15.27;75.77;101510.42;105132;1270;62134;-81
2023/09/17 06:10:49;;;;;;;;;;;;;;;15.32;75.75;101509.43;105193;1270;61998;-81
2023/09/17 06:13:15;;;;;;;;;;;;;;;15.35;75.71;101507.02;104975;1268;125423;-77
2023/09/17 06:15:43;;;;;;;;;;;;;;;15.41;75.77;101509.60;106027;1270;66259;-78
2023/09/17 06:18:32;;;;;;;;;;;;;;;15.47;75.91;101513.95;105968;1270;125199;-77
2023/09/17 06:20:59;;;;;;;;;;;;;;;15.56;75.94;101515.52;106535;1270;62519;-77
2023/09/17 06:23:27;;;;;;;;;;;;;;;15.63;75.87;101511.56;105995;1270;126138;-77
2023/09/17 06:25:53;;;;;;;;;;;;;;;15.70;75.89;101512.02;105854;1270;75986;-77
2023/09/17 06:28:20;;;;;;;;;;;;;;;15.76;75.85;101510.57;105865;1271;66255;-78
2023/09/17 06:30:48;;;;;;;;;;;;;;;15.85;75.97;101513.36;105897;1273;125393;-77
2023/09/17 06:33:15;;;;;;;;;;;;;;;15.95;76.02;101515.81;106042;1270;62017;-79
2023/09/17 06:35:42;;;;;;;;;;;;;;;16.06;76.05;101515.08;106127;1267;125419;-77
2023/09/17 06:38:08;;;;;;;;;;;;;;;16.16;75.94;101515.06;106019;1268;61733;-77
2023/09/17 06:40:35;;;;;;;;;;;;;;;16.27;76.02;101514.31;105897;1267;60105;-78
2023/09/17 06:43:01;;;;;;;;;;;;;;;16.37;75.94;101512.16;105844;1269;125865;-80
2023/09/17 06:45:28;;;;;;;;;;;;;;;16.49;75.91;101511.78;106030;1268;62452;-78
2023/09/17 06:47:54;;;;;;;;;;;;;;;16.60;75.74;101513.15;105864;1267;125320;-78
2023/09/17 06:50:21;;;;;;;;;;;;;;;16.69;75.70;101516.64;105977;1270;62085;-81
2023/09/17 06:52:47;;;;;;;;;;;;;;;16.79;75.59;101509.48;106089;1273;62119;-80
2023/09/17 06:55:14;;;;;;;;;;;;;;;16.91;75.56;101512.48;106753;1268;125265;-76
2023/09/17 06:57:40;;;;;;;;;;;;;;;17.03;75.49;101512.80;105310;1268;62124;-75
2023/09/17 07:00:07;;;;;;;;;;;;;;;17.14;75.35;101511.84;105117;1270;125630;-75
2023/09/17 07:02:33;;;;;;;;;;;;;;;17.25;75.39;101512.13;105160;1269;75595;-75
2023/09/17 07:05:01;;;;;;;;;;;;;;;17.34;75.23;101513.11;105217;1267;126090;-77
2023/09/17 07:07:27;;;;;;;;;;;;;;;17.44;75.07;101509.11;105347;1268;72747;-79
2023/09/17 07:09:54;;;;;;;;;;;;;;;17.53;75.00;101510.61;105293;1273;60262;-75
2023/09/17 07:12:20;;;;;;;;;;;;;;;17.61;74.98;101507.66;105089;1268;125942;-79
2023/09/17 07:14:47;;;;;;;;;;;;;;;17.71;74.92;101511.11;105206;1270;62091;-79
2023/09/17 07:17:14;;;;;;;;;;;;;;;17.82;74.80;101509.25;105129;1268;125728;-79
2023/09/17 07:19:40;;;;;;;;;;;;;;;17.92;74.73;101511.30;105141;1273;72522;-78
2023/09/17 07:22:11;;;;;;;;;;;;;;;18.00;74.55;101509.23;105111;1270;62088;-78
2023/09/17 07:24:38;;;;;;;;;;;;;;;18.10;74.49;101507.15;104965;1271;125458;-79
2023/09/17 07:27:04;;;;;;;;;;;;;;;18.19;74.34;101509.16;105142;1268;62117;-79
2023/09/17 07:29:31;;;;;;;;;;;;;;;18.29;74.32;101511.70;105280;1267;125532;-82
2023/09/17 07:31:57;;;;;;;;;;;;;;;18.38;74.26;101514.77;105993;1273;71426;-82
2023/09/17 07:34:25;;;;;;;;;;;;;;;18.48;74.21;101515.00;105814;1271;61988;-79
2023/09/17 07:36:51;;;;;;;;;;;;;;;18.57;74.03;101513.42;105068;1268;125608;-79
2023/09/17 07:39:18;;;;;;;;;;;;;;;18.63;73.89;101513.10;105155;1269;73440;-79
2023/09/17 07:41:45;;;;;;;;;;;;;;;18.70;73.70;101511.35;104997;1272;124780;-79
2023/09/17 07:44:12;;;;;;;;;;;;;;;18.78;73.68;101508.19;105061;1267;176695;-80
2023/09/17 07:46:38;;;;;;;;;;;;;;;18.86;73.61;101509.65;105822;1273;62168;-80
2023/09/17 07:49:05;;;;;;;;;;;;;;;18.93;73.49;101507.90;105745;1270;124733;-80
2023/09/17 07:51:31;;;;;;;;;;;;;;;18.99;73.23;101509.52;105958;1267;62071;-81
2023/09/17 07:53:59;;;;;;;;;;;;;;;19.04;73.12;101507.75;105155;1276;125294;-81
2023/09/17 07:56:25;;;;;;;;;;;;;;;19.09;73.04;101509.89;105957;1267;72717;-79
2023/09/17 07:58:52;;;;;;;;;;;;;;;19.15;72.96;101507.59;104874;1270;124754;-78
2023/09/17 08:01:18;;;;;;;;;;;;;;;19.17;72.62;101506.72;105262;1272;61783;-79
2023/09/17 08:03:45;;;;;;;;;;;;;;;19.21;72.58;101514.89;105150;1269;62117;-80
2023/09/17 08:06:12;;;;;;;;;;;;;;;19.25;72.50;101511.15;105792;1268;125253;-78
2023/09/17 08:08:38;;;;;;;;;;;;;;;19.30;72.37;101510.64;105905;1268;71411;-83
2023/09/17 08:11:06;;;;;;;;;;;;;;;19.36;72.33;101510.83;105832;1272;126169;-85
2023/09/17 08:13:33;;;;;;;;;;;;;;;19.42;72.32;101515.63;105868;1268;62012;-85
2023/09/17 08:15:59;;;;;;;;;;;;;;;19.50;72.20;101517.05;106021;1272;62238;-80
2023/09/17 08:18:26;;;;;;;;;;;;;;;19.57;72.02;101518.48;105868;1273;126300;-80
2023/09/17 08:20:53;;;;;;;;;;;;;;;19.64;71.85;101518.66;105952;1269;71413;-86
2023/09/17 08:23:25;;;;;;;;;;;;;;;19.72;71.73;101519.75;105809;1267;126693;-87
2023/09/17 08:25:52;;;;;;;;;;;;;;;19.79;71.56;101521.89;105963;1270;62110;-84
2023/09/17 08:28:22;;;;;;;;;;;;;;;19.87;71.42;101518.15;106427;1270;75403;-84
2023/09/17 08:30:49;;;;;;;;;;;;;;;19.93;71.22;101522.59;105859;1268;126735;-83
2023/09/17 08:33:15;;;;;;;;;;;;;;;19.99;71.00;101522.77;105838;1273;71459;-84
2023/09/17 08:35:42;;;;;;;;;;;;;;;20.04;70.97;101522.93;105579;1275;125239;-84
2023/09/17 08:38:10;;;;;;;;;;;;;;;20.13;70.73;101522.73;105770;1270;60097;-87
2023/09/17 08:40:36;;;;;;;;;;;;;;;20.20;70.73;101524.50;105897;1272;74883;-85
2023/09/17 08:43:04;;;;;;;;;;;;;;;20.27;70.52;101526.63;105869;1270;125711;-85
2023/09/17 08:45:31;;;;;;;;;;;;;;;20.32;70.35;101521.79;105778;1268;72790;-85
2023/09/17 08:47:58;;;;;;;;;;;;;;;20.37;70.21;101523.93;105749;1273;124874;-85
2023/09/17 08:50:25;;;;;;;;;;;;;;;20.42;69.93;101523.73;105919;1270;62007;-84
2023/09/17 08:52:56;;;;;;;;;;;;;;;20.48;70.01;101526.56;105799;1273;124845;-82
2023/09/17 08:55:23;;;;;;;;;;;;;;;20.54;69.90;101527.23;105974;1269;66652;-85
2023/09/17 08:57:52;;;;;;;;;;;;;;;20.60;69.69;101528.50;105800;1270;72695;-85
2023/09/17 09:00:18;;;;;;;;;;;;;;;20.63;69.29;101526.00;108123;1268;124582;-85
2023/09/17 09:02:55;;;;;;;;;;;;;;;20.68;69.34;101524.19;106818;1273;62090;-85
2023/09/17 09:05:23;;;;;;;;;;;;;;;20.73;69.27;101520.24;105898;1267;124701;-85
2023/09/17 09:07:50;;;;;;;;;;;;;;;20.78;69.16;101520.75;105670;1270;66131;-85
2023/09/17 09:10:16;;;;;;;;;;;;;;;20.83;68.95;101523.58;105659;1268;71590;-85
2023/09/17 09:12:44;;;;;;;;;;;;;;;20.84;68.80;101523.05;105484;1267;125317;-85
2023/09/17 09:15:10;;;;;;;;;;;;;;;20.88;68.66;101520.88;105779;1270;62092;-85
2023/09/17 09:17:40;;;;;;;;;;;;;;;20.94;68.56;101518.17;105448;1267;126051;-81
2023/09/17 09:20:09;;;;;;;;;;;;;;;21.01;68.44;101522.77;105752;1270;64655;-85
2023/09/17 09:22:37;;;;;;;;;;;;;;;21.07;68.05;101523.82;105848;1267;73121;-86
2023/09/17 09:25:06;;;;;;;;;;;;;;;21.13;68.17;101525.73;105710;1267;125238;-86
2023/09/17 09:27:32;;;;;;;;;;;;;;;21.21;68.17;101524.79;105794;1268;62078;-86
2023/09/17 09:29:59;;;;;;;;;;;;;;;21.29;67.77;101525.09;105781;1268;123919;-84
2023/09/17 09:32:26;;;;;;;;;;;;;;;21.34;67.47;101521.84;105620;1269;65187;-82
2023/09/17 09:34:53;;;;;;;;;;;;;;;21.37;67.37;101523.06;105679;1266;124635;-82
2023/09/17 09:37:21;;;;;;;;;;;;;;;21.40;67.11;101517.50;105766;1269;62126;-82
2023/09/17 09:39:48;;;;;;;;;;;;;;;21.41;66.69;101518.92;105707;1270;62046;-79
2023/09/17 09:42:14;;;;;;;;;;;;;;;21.43;66.64;101518.73;105666;1267;124713;-85
2023/09/17 09:44:41;;;;;;;;;;;;;;;21.45;66.49;101514.64;105773;1268;66359;-84
2023/09/17 09:47:08;;;;;;;;;;;;;;;21.49;66.37;101515.52;106286;1268;125054;-82
2023/09/17 09:49:41;;;;;;;;;;;;;;;21.52;66.08;101513.70;106461;1267;62129;-83
2023/09/17 09:52:07;;;;;;;;;;;;;;;21.54;66.01;101511.91;105743;1268;62074;-82
2023/09/17 09:54:37;;;;;;;;;;;;;;;21.58;65.99;101514.55;105401;1268;124745;-83
2023/09/17 09:57:05;;;;;;;;;;;;;;;21.60;66.16;101514.00;105324;1272;66225;-83
2023/09/17 09:59:32;;;;;;;;;;;;;;;21.65;66.49;101512.88;105692;1272;125143;-83
2023/09/17 10:01:59;;;;;;;;;;;;;;;21.71;66.39;101509.97;105739;1270;62202;-83
2023/09/17 10:04:25;;;;;;;;;;;;;;;21.76;66.17;101509.92;105669;1268;62101;-82
2023/09/17 10:06:52;;;;;;;;;;;;;;;21.81;66.14;101511.48;105822;1270;123455;-82
2023/09/17 10:09:19;;;;;;;;;;;;;;;21.85;66.06;101514.84;105720;1269;64948;-82
2023/09/17 10:11:46;;;;;;;;;;;;;;;21.89;65.67;101512.83;105582;1267;125218;-82
2023/09/17 10:14:13;;;;;;;;;;;;;;;21.92;65.54;101515.14;105553;1270;62078;-83
2023/09/17 10:16:39;;;;;;;;;;;;;;;21.97;65.51;101505.96;105768;1269;62442;-86
2023/09/17 10:19:06;;;;;;;;;;;;;;;22.01;65.21;101503.61;105545;1268;124670;-86
2023/09/17 10:21:39;;;;;;;;;;;;;;;22.04;65.21;101506.60;105771;1268;66235;-86
2023/09/17 10:24:06;;;;;;;;;;;;;;;22.09;65.16;101507.09;105560;1269;124036;-86
2023/09/17 10:26:37;;;;;;;;;;;;;;;22.15;64.83;101511.67;105682;1268;62318;-87
2023/09/17 10:29:04;;;;;;;;;;;;;;;22.21;64.83;101514.29;105430;1267;126075;-88
2023/09/17 10:31:31;;;;;;;;;;;;;;;22.27;64.60;101510.50;105553;1273;74811;-87
2023/09/17 10:33:59;;;;;;;;;;;;;;;22.33;64.37;101509.01;105926;1268;66305;-88
2023/09/17 10:36:26;;;;;;;;;;;;;;;22.37;64.13;101513.25;105942;1268;124982;-89
2023/09/17 10:38:54;;;;;;;;;;;;;;;22.41;63.94;101513.91;105774;1276;62199;-89
2023/09/17 10:41:21;;;;;;;;;;;;;;;22.46;63.76;101514.39;105605;1271;123741;-91
2023/09/17 10:43:48;;;;;;;;;;;;;;;22.50;63.46;101512.92;105566;1270;75507;-90
2023/09/17 10:46:14;;;;;;;;;;;;;;;22.54;63.31;101512.15;105470;1268;64246;-87
2023/09/17 11:02:47;;;;;;;;;;;;;;;22.80;62.51;101518.79;107341;1262;81702;-80
2023/09/17 11:05:14;;;;;;;;;;;;;;;22.85;62.57;101518.19;105961;1272;124720;-83
2023/09/17 11:07:41;;;;;;;;;;;;;;;22.92;62.60;101520.23;105742;1272;62059;-82
2023/09/17 11:10:10;;;;;;;;;;;;;;;22.98;62.32;101519.24;105747;1273;62057;-82
2023/09/17 11:12:37;;;;;;;;;;;;;;;22.99;62.21;101514.06;105802;1267;125109;-85
2023/09/17 11:15:05;;;;;;;;;;;;;;;23.04;62.03;101514.91;105918;1267;66275;-85
2023/09/17 11:17:32;;;;;;;;;;;;;;;23.06;61.90;101515.41;105584;1273;124830;-85
2023/09/17 11:19:59;;;;;;;;;;;;;;;23.06;61.89;101513.63;105658;1268;60103;-85
2023/09/17 11:22:30;;;;;;;;;;;;;;;23.12;62.06;101514.98;105802;1273;61326;-83
2023/09/17 11:24:56;;;;;;;;;;;;;;;23.18;61.91;101517.77;105650;1270;124994;-84
2023/09/17 11:27:43;;;;;;;;;;;;;;;23.19;61.70;101513.61;106036;1270;60641;-83
2023/09/17 11:30:14;;;;;;;;;;;;;;;23.22;61.81;101513.92;105985;1271;124511;-83
2023/09/17 11:32:41;;;;;;;;;;;;;;;23.27;61.85;101508.83;106058;1271;62077;-85
2023/09/17 11:35:07;;;;;;;;;;;;;;;23.31;61.57;101506.27;105610;1270;125083;-84
2023/09/17 11:37:34;;;;;;;;;;;;;;;23.34;61.43;101506.39;105790;1268;74243;-83
2023/09/17 11:40:01;;;;;;;;;;;;;;;23.37;61.31;101508.31;105768;1267;60548;-84
2023/09/17 11:42:27;;;;;;;;;;;;;;;23.41;61.08;101509.86;105904;1270;124620;-84
2023/09/17 11:44:58;;;;;;;;;;;;;;;23.38;60.61;101509.02;105677;1267;62131;-83
2023/09/17 11:47:25;;;;;;;;;;;;;;;23.37;60.57;101505.99;105888;1268;124637;-84
2023/09/17 11:49:52;;;;;;;;;;;;;;;23.39;60.71;101510.42;106042;1267;60250;-84
2023/09/17 11:52:19;;;;;;;;;;;;;;;23.42;60.93;101513.23;106028;1267;65618;-84
2023/09/17 11:54:48;;;;;;;;;;;;;;;23.46;60.65;101510.48;106101;1272;124412;-84
2023/09/17 11:57:20;;;;;;;;;;;;;;;23.49;60.58;101515.46;106119;1267;62088;-84
2023/09/17 11:59:47;;;;;;;;;;;;;;;23.49;60.22;101516.72;106056;1267;125953;-82
2023/09/17 12:02:13;;;;;;;;;;;;;;;23.51;60.15;101515.80;105887;1267;60708;-85
2023/09/17 12:04:40;;;;;;;;;;;;;;;23.54;59.99;101514.66;106069;1267;65094;-84
2023/09/17 12:07:07;;;;;;;;;;;;;;;23.54;59.81;101515.74;105978;1267;124606;-84
2023/09/17 12:12:05;;;;;;;;;;;;;;;23.60;59.83;101517.80;105744;1267;124733;-85
2023/09/17 12:14:34;;;;;;;;;;;;;;;23.60;59.63;101519.59;105933;1267;75877;-84
2023/09/17 12:17:01;;;;;;;;;;;;;;;23.61;59.65;101518.13;105609;1267;65329;-89
2023/09/17 12:19:28;;;;;;;;;;;;;;;23.63;59.82;101520.06;105730;1267;72627;-84
2023/09/17 12:21:57;;;;;;;;;;;;;;;23.65;59.89;101518.23;105691;1268;62094;-83
2023/09/17 12:24:40;;;;;;;;;;;;;;;23.61;59.84;101515.27;105654;1271;124625;-88
2023/09/17 12:27:19;;;;;;;;;;;;;;;23.53;59.74;101517.73;105791;1266;76734;-86
2023/09/17 12:29:46;;;;;;;;;;;;;;;23.42;59.91;101514.86;105549;1274;124947;-84
2023/09/17 12:32:12;;;;;;;;;;;;;;;23.31;59.72;101513.96;105600;1270;72767;-83
2023/09/17 12:34:43;;;;;;;;;;;;;;;23.20;59.83;101511.10;105725;1267;62194;-84
2023/09/17 12:37:11;;;;;;;;;;;;;;;23.13;59.95;101511.20;105547;1267;125055;-84
2023/09/17 12:39:42;;;;;;;;;;;;;;;23.06;59.80;101512.55;105861;1267;74701;-84